sensor_id;sensor_type;location;lat;lon;timestamp;P1;durP1;ratioP1;P2;durP2;ratioP2
57307;SDS011;43152;50.968;18.214;2024-01-11T00:00:41;343.10;;;98.60;;
57307;SDS011;43152;50.968;18.214;2024-01-11T00:10:23;331.40;;;96.70;;
57307;SDS011;43152;50.968;18.214;2024-01-11T00:20:06;371.50;;;116.10;;
57307;SDS011;43152;50.968;18.214;2024-01-11T00:29:48;230.80;;;78.70;;
57307;SDS011;43152;50.968;18.214;2024-01-11T00:39:31;299.20;;;87.80;;
57307;SDS011;43152;50.968;18.214;2024-01-11T00:49:13;330.70;;;95.20;;
57307;SDS011;43152;50.968;18.214;2024-01-11T00:58:55;294.20;;;92.40;;
57307;SDS011;43152;50.968;18.214;2024-01-11T01:08:37;315.10;;;98.30;;
57307;SDS011;43152;50.968;18.214;2024-01-11T01:18:19;289.10;;;90.60;;
57307;SDS011;43152;50.968;18.214;2024-01-11T01:28:01;309.20;;;93.10;;
57307;SDS011;43152;50.968;18.214;2024-01-11T01:37:44;203.10;;;64.90;;
57307;SDS011;43152;50.968;18.214;2024-01-11T01:47:31;272.00;;;89.60;;
57307;SDS011;43152;50.968;18.214;2024-01-11T01:57:14;280.60;;;90.70;;
57307;SDS011;43152;50.968;18.214;2024-01-11T02:06:56;261.60;;;82.40;;
57307;SDS011;43152;50.968;18.214;2024-01-11T02:16:40;259.10;;;89.40;;
57307;SDS011;43152;50.968;18.214;2024-01-11T02:26:26;238.00;;;73.40;;
57307;SDS011;43152;50.968;18.214;2024-01-11T02:36:08;177.60;;;53.70;;
57307;SDS011;43152;50.968;18.214;2024-01-11T02:45:53;310.50;;;96.10;;
57307;SDS011;43152;50.968;18.214;2024-01-11T02:55:37;334.10;;;105.60;;
57307;SDS011;43152;50.968;18.214;2024-01-11T03:05:19;308.60;;;91.30;;
57307;SDS011;43152;50.968;18.214;2024-01-11T03:15:01;297.80;;;93.80;;
57307;SDS011;43152;50.968;18.214;2024-01-11T03:24:43;331.90;;;96.30;;
57307;SDS011;43152;50.968;18.214;2024-01-11T03:34:25;332.00;;;87.20;;
57307;SDS011;43152;50.968;18.214;2024-01-11T03:44:10;377.60;;;105.60;;
57307;SDS011;43152;50.968;18.214;2024-01-11T03:53:53;314.40;;;89.40;;
57307;SDS011;43152;50.968;18.214;2024-01-11T04:03:36;329.80;;;87.30;;
57307;SDS011;43152;50.968;18.214;2024-01-11T04:13:19;312.80;;;100.50;;
57307;SDS011;43152;50.968;18.214;2024-01-11T04:23:02;334.50;;;92.30;;
57307;SDS011;43152;50.968;18.214;2024-01-11T04:32:44;312.30;;;99.10;;
57307;SDS011;43152;50.968;18.214;2024-01-11T04:42:27;388.20;;;105.90;;
57307;SDS011;43152;50.968;18.214;2024-01-11T04:52:11;390.70;;;116.30;;
57307;SDS011;43152;50.968;18.214;2024-01-11T05:01:54;317.60;;;101.30;;
57307;SDS011;43152;50.968;18.214;2024-01-11T05:11:36;382.10;;;124.00;;
57307;SDS011;43152;50.968;18.214;2024-01-11T05:21:22;288.40;;;84.80;;
57307;SDS011;43152;50.968;18.214;2024-01-11T05:31:06;323.50;;;97.70;;
57307;SDS011;43152;50.968;18.214;2024-01-11T05:40:50;293.60;;;96.80;;
57307;SDS011;43152;50.968;18.214;2024-01-11T05:50:32;264.10;;;81.30;;
57307;SDS011;43152;50.968;18.214;2024-01-11T06:00:15;247.20;;;81.30;;
57307;SDS011;43152;50.968;18.214;2024-01-11T06:10:01;278.60;;;81.70;;
57307;SDS011;43152;50.968;18.214;2024-01-11T06:19:45;177.80;;;56.80;;
57307;SDS011;43152;50.968;18.214;2024-01-11T06:29:27;203.70;;;69.60;;
57307;SDS011;43152;50.968;18.214;2024-01-11T06:39:10;262.30;;;81.50;;
57307;SDS011;43152;50.968;18.214;2024-01-11T06:48:55;271.90;;;74.80;;
57307;SDS011;43152;50.968;18.214;2024-01-11T06:58:45;252.10;;;82.10;;
57307;SDS011;43152;50.968;18.214;2024-01-11T07:08:29;199.00;;;63.20;;
57307;SDS011;43152;50.968;18.214;2024-01-11T07:18:13;196.20;;;62.10;;
57307;SDS011;43152;50.968;18.214;2024-01-11T07:48:51;199.20;;;64.70;;
57307;SDS011;43152;50.968;18.214;2024-01-11T07:58:33;197.80;;;68.70;;
57307;SDS011;43152;50.968;18.214;2024-01-11T08:08:18;224.00;;;63.90;;
57307;SDS011;43152;50.968;18.214;2024-01-11T08:18:00;306.60;;;82.90;;
57307;SDS011;43152;50.968;18.214;2024-01-11T08:27:43;214.40;;;67.30;;
57307;SDS011;43152;50.968;18.214;2024-01-11T08:37:31;227.80;;;60.60;;
57307;SDS011;43152;50.968;18.214;2024-01-11T08:47:14;200.00;;;60.80;;
57307;SDS011;43152;50.968;18.214;2024-01-11T08:56:58;162.40;;;47.70;;
57307;SDS011;43152;50.968;18.214;2024-01-11T09:06:43;106.10;;;41.20;;
57307;SDS011;43152;50.968;18.214;2024-01-11T09:16:28;317.90;;;71.60;;
57307;SDS011;43152;50.968;18.214;2024-01-11T09:26:10;135.10;;;39.80;;
57307;SDS011;43152;50.968;18.214;2024-01-11T09:36:37;99.00;;;31.10;;
57307;SDS011;43152;50.968;18.214;2024-01-11T09:46:23;269.80;;;58.50;;
57307;SDS011;43152;50.968;18.214;2024-01-11T09:56:07;136.40;;;37.70;;
57307;SDS011;43152;50.968;18.214;2024-01-11T10:05:54;72.00;;;21.10;;
57307;SDS011;43152;50.968;18.214;2024-01-11T10:15:39;59.40;;;26.10;;
57307;SDS011;43152;50.968;18.214;2024-01-11T10:25:23;19.60;;;5.70;;
57307;SDS011;43152;50.968;18.214;2024-01-11T10:35:11;53.20;;;15.90;;
57307;SDS011;43152;50.968;18.214;2024-01-11T10:45:17;57.10;;;18.20;;
57307;SDS011;43152;50.968;18.214;2024-01-11T10:55:22;67.20;;;19.60;;
57307;SDS011;43152;50.968;18.214;2024-01-11T11:05:06;62.90;;;20.90;;
57307;SDS011;43152;50.968;18.214;2024-01-11T11:14:56;62.00;;;22.00;;
57307;SDS011;43152;50.968;18.214;2024-01-11T11:24:40;53.60;;;18.70;;
57307;SDS011;43152;50.968;18.214;2024-01-11T11:34:40;57.40;;;18.20;;
57307;SDS011;43152;50.968;18.214;2024-01-11T11:44:28;47.00;;;17.70;;
57307;SDS011;43152;50.968;18.214;2024-01-11T11:54:10;61.60;;;16.90;;
57307;SDS011;43152;50.968;18.214;2024-01-11T12:03:54;44.60;;;14.80;;
57307;SDS011;43152;50.968;18.214;2024-01-11T12:13:40;45.70;;;13.50;;
57307;SDS011;43152;50.968;18.214;2024-01-11T12:23:23;31.80;;;12.00;;
57307;SDS011;43152;50.968;18.214;2024-01-11T12:33:05;48.80;;;16.50;;
57307;SDS011;43152;50.968;18.214;2024-01-11T12:43:00;43.70;;;15.20;;
57307;SDS011;43152;50.968;18.214;2024-01-11T13:03:04;32.20;;;10.40;;
57307;SDS011;43152;50.968;18.214;2024-01-11T13:12:58;43.40;;;15.30;;
57307;SDS011;43152;50.968;18.214;2024-01-11T13:22:43;49.90;;;13.90;;
57307;SDS011;43152;50.968;18.214;2024-01-11T13:32:26;35.60;;;11.70;;
57307;SDS011;43152;50.968;18.214;2024-01-11T13:42:11;40.80;;;14.60;;
57307;SDS011;43152;50.968;18.214;2024-01-11T13:51:54;34.00;;;10.50;;
57307;SDS011;43152;50.968;18.214;2024-01-11T14:01:38;12.00;;;3.70;;
57307;SDS011;43152;50.968;18.214;2024-01-11T14:11:20;43.80;;;15.40;;
57307;SDS011;43152;50.968;18.214;2024-01-11T14:21:05;42.90;;;12.50;;
57307;SDS011;43152;50.968;18.214;2024-01-11T14:30:51;25.90;;;9.60;;
57307;SDS011;43152;50.968;18.214;2024-01-11T14:40:33;40.90;;;14.10;;
57307;SDS011;43152;50.968;18.214;2024-01-11T14:50:17;46.10;;;15.90;;
57307;SDS011;43152;50.968;18.214;2024-01-11T15:00:00;50.10;;;15.60;;
57307;SDS011;43152;50.968;18.214;2024-01-11T15:09:46;43.00;;;13.10;;
57307;SDS011;43152;50.968;18.214;2024-01-11T15:19:29;48.10;;;14.60;;
57307;SDS011;43152;50.968;18.214;2024-01-11T15:29:11;25.10;;;8.40;;
57307;SDS011;43152;50.968;18.214;2024-01-11T15:39:25;29.80;;;10.10;;
57307;SDS011;43152;50.968;18.214;2024-01-11T15:49:10;41.40;;;12.10;;
57307;SDS011;43152;50.968;18.214;2024-01-11T15:58:54;31.10;;;11.90;;
57307;SDS011;43152;50.968;18.214;2024-01-11T16:08:38;50.30;;;12.70;;
57307;SDS011;43152;50.968;18.214;2024-01-11T16:18:22;38.40;;;12.70;;
57307;SDS011;43152;50.968;18.214;2024-01-11T16:28:08;41.40;;;13.50;;
57307;SDS011;43152;50.968;18.214;2024-01-11T16:37:52;20.80;;;7.40;;
57307;SDS011;43152;50.968;18.214;2024-01-11T16:47:35;45.10;;;14.40;;
57307;SDS011;43152;50.968;18.214;2024-01-11T16:57:23;43.10;;;14.20;;
57307;SDS011;43152;50.968;18.214;2024-01-11T17:07:05;45.70;;;10.20;;
57307;SDS011;43152;50.968;18.214;2024-01-11T17:16:47;33.60;;;9.90;;
57307;SDS011;43152;50.968;18.214;2024-01-11T17:26:36;51.90;;;14.90;;
57307;SDS011;43152;50.968;18.214;2024-01-11T17:36:18;44.20;;;16.80;;
57307;SDS011;43152;50.968;18.214;2024-01-11T17:46:01;43.60;;;14.90;;
57307;SDS011;43152;50.968;18.214;2024-01-11T17:55:45;39.80;;;14.30;;
57307;SDS011;43152;50.968;18.214;2024-01-11T18:05:28;39.50;;;12.70;;
57307;SDS011;43152;50.968;18.214;2024-01-11T18:15:14;34.30;;;9.50;;
57307;SDS011;43152;50.968;18.214;2024-01-11T18:25:00;8.10;;;3.10;;
57307;SDS011;43152;50.968;18.214;2024-01-11T18:34:43;27.00;;;6.60;;
57307;SDS011;43152;50.968;18.214;2024-01-11T18:44:27;29.50;;;7.90;;
57307;SDS011;43152;50.968;18.214;2024-01-11T18:54:11;44.90;;;18.60;;
57307;SDS011;43152;50.968;18.214;2024-01-11T19:03:54;20.20;;;6.90;;
57307;SDS011;43152;50.968;18.214;2024-01-11T19:13:37;38.70;;;13.60;;
57307;SDS011;43152;50.968;18.214;2024-01-11T19:23:22;53.00;;;16.60;;
57307;SDS011;43152;50.968;18.214;2024-01-11T19:33:14;42.40;;;15.30;;
57307;SDS011;43152;50.968;18.214;2024-01-11T19:43:01;38.40;;;11.80;;
57307;SDS011;43152;50.968;18.214;2024-01-11T19:52:43;27.90;;;12.00;;
57307;SDS011;43152;50.968;18.214;2024-01-11T20:02:25;33.40;;;13.40;;
57307;SDS011;43152;50.968;18.214;2024-01-11T20:12:11;16.70;;;3.50;;
57307;SDS011;43152;50.968;18.214;2024-01-11T20:21:56;31.80;;;11.80;;
57307;SDS011;43152;50.968;18.214;2024-01-11T20:31:39;39.30;;;13.10;;
57307;SDS011;43152;50.968;18.214;2024-01-11T20:41:23;27.60;;;10.00;;
57307;SDS011;43152;50.968;18.214;2024-01-11T20:51:12;30.20;;;12.30;;
57307;SDS011;43152;50.968;18.214;2024-01-11T21:01:02;25.30;;;11.90;;
57307;SDS011;43152;50.968;18.214;2024-01-11T21:10:49;24.00;;;8.00;;
57307;SDS011;43152;50.968;18.214;2024-01-11T21:20:32;9.10;;;3.00;;
57307;SDS011;43152;50.968;18.214;2024-01-11T21:30:14;32.20;;;9.30;;
57307;SDS011;43152;50.968;18.214;2024-01-11T21:40:18;24.00;;;9.00;;
57307;SDS011;43152;50.968;18.214;2024-01-11T21:50:01;30.00;;;12.20;;
57307;SDS011;43152;50.968;18.214;2024-01-11T21:59:43;20.50;;;6.30;;
57307;SDS011;43152;50.968;18.214;2024-01-11T22:16:42;22.20;;;8.40;;
57307;SDS011;43152;50.968;18.214;2024-01-11T22:26:24;36.90;;;10.80;;
57307;SDS011;43152;50.968;18.214;2024-01-11T22:36:12;24.70;;;9.70;;
57307;SDS011;43152;50.968;18.214;2024-01-11T22:45:57;17.50;;;6.20;;
57307;SDS011;43152;50.968;18.214;2024-01-11T22:55:39;38.50;;;14.40;;
57307;SDS011;43152;50.968;18.214;2024-01-11T23:21:51;18.60;;;5.10;;
57307;SDS011;43152;50.968;18.214;2024-01-11T23:31:34;28.00;;;11.80;;
57307;SDS011;43152;50.968;18.214;2024-01-11T23:41:18;44.70;;;15.40;;
57307;SDS011;43152;50.968;18.214;2024-01-11T23:51:02;39.60;;;9.30;;
